메인 페이지
METAR-TAF:

METAR-TAF

공항 :

바르나, 불가리아

위도: 43-12N, 경도: 027-55E, 고도: 41m

현재 날씨관측

예보는 17분 전, 19:30시(UTC)에 발표되었습니다.
동북동5kt
온도 18°C
습도 88%
기압 1013 hPa
시정 10km 이상
고도 3100ft 상공 구름 많음

METAR: LBWN 251930Z 07005KT 9999 BKN031 18/16 Q1013 NOSIG

시각: 21:47 (19:47 UTC)

예보

예보는 2 시간 47분 전, 17:00시(UTC)에 발표되었습니다.
예보 대상 시간: 25일 18시부터 26일 18시까지 (UTC)
동남동10kt
시정: 7000m
고도 1200ft 상공 구름 보통
고도 2500ft 상공 구름 많음
전환 중
25일 18시부터 25일 20시까지 (UTC)
북북동10kt
시정: 5000m
고도 800ft 상공 구름 보통
고도 2000ft 상공 구름 많음
박무
일시적
25일 21시부터 26일 09시까지 (UTC)
시정: 4000m
고도 700ft 상공 구름 많음
고도 1500ft 상공 흐림
확률 30%
26일 01시부터 26일 07시까지 (UTC)
시정: 3000m
고도 2500ft 상공 구름 보통, 적란운.
소나기
전환 중
26일 10시부터 26일 12시까지 (UTC)
북서10kt
시정 10km 이상
고도 1500ft 상공 구름 보통
고도 4000ft 상공 구름 많음

TAF: LBWN 251700Z 2518/2618 11010KT 7000 SCT012 BKN025 BECMG 2518/2520 02010KT 5000 BR SCT008 BKN020 TEMPO 2521/2609 4000 RA BKN007 OVC015 PROB30 2601/2607 3000 SHRA SCT025CB BECMG 2610/2612 32010KT 9999 SCT015 BKN040

4,000개 이상의 공항 관측 자료 및 예보 (METAR 및 TAF 보고).

지도상에서 검색 가능한 기상관측소가 노란 점과 빨간 점으로 표시되어 있습니다.

기상관측소 명을 보려면 표시 위로 마우스를 이동하세요.

날씨 관측과 예보를 보려면 클릭하세요.

지도 변경 : 확대하려면 엑스 표시가 있는 녹색 버튼, 축소하려면 빼기 표시가 있는 녹색 버튼, 다음 페이지의 지도를 보려면 녹색 화살표를 클릭하세요.


METAR-TAF: